createdAt,value
2022-08-22T00:01:34.181Z,73.34
2022-08-22T00:02:49.564Z,65.28
2022-08-22T00:02:54.995Z,69.65
2022-08-22T00:03:11.846Z,71.00
2022-08-22T00:05:27.716Z,73.33
2022-08-22T00:09:23.097Z,74.24
2022-08-22T00:13:09.676Z,74.37
2022-08-22T00:16:59.298Z,74.59
2022-08-22T00:20:46.471Z,75.04
2022-08-22T00:24:33.291Z,75.52
2022-08-22T00:28:20.762Z,75.38
2022-08-22T00:32:10.330Z,75.44
2022-08-22T00:36:07.073Z,75.01
2022-08-22T00:39:53.674Z,75.32
2022-08-22T00:44:20.786Z,75.76
2022-08-22T00:48:14.353Z,76.52
2022-08-22T00:52:40.046Z,76.35
2022-08-22T00:57:04.514Z,76.68
2022-08-22T01:00:51.997Z,77.14
2022-08-22T01:04:55.332Z,77.70
2022-08-22T01:08:52.033Z,76.78
2022-08-22T01:12:47.240Z,75.98
2022-08-22T01:16:42.768Z,76.18
2022-08-22T01:20:57.776Z,76.86
2022-08-22T01:25:25.782Z,76.56
2022-08-22T01:29:31.542Z,76.37
2022-08-22T01:33:57.348Z,77.11
2022-08-22T01:38:08.619Z,77.76
2022-08-22T01:42:12.567Z,77.98
2022-08-22T01:46:10.998Z,78.26
2022-08-22T01:49:57.416Z,78.85
2022-08-22T01:53:45.415Z,79.32
2022-08-22T01:57:28.379Z,79.58
2022-08-22T02:01:29.330Z,80.14
2022-08-22T02:05:19.732Z,81.05
2022-08-22T02:09:10.510Z,80.57
2022-08-22T02:13:00.857Z,79.75
2022-08-22T02:16:46.185Z,78.89
2022-08-22T02:20:34.197Z,78.04
2022-08-22T02:24:27.588Z,78.04
2022-08-22T02:28:14.159Z,78.63
2022-08-22T02:32:00.049Z,79.50
2022-08-22T02:35:48.300Z,80.08
2022-08-22T02:39:36.832Z,80.71
2022-08-22T02:43:22.171Z,81.92
2022-08-22T02:47:09.433Z,82.98
2022-08-22T02:50:56.700Z,81.70
2022-08-22T02:54:49.203Z,82.60
2022-08-22T02:58:40.971Z,81.30
2022-08-22T03:02:28.695Z,81.57
2022-08-22T03:06:33.775Z,81.66
2022-08-22T03:10:24.082Z,81.67
2022-08-22T03:14:10.667Z,82.51
2022-08-22T03:17:57.162Z,83.26
2022-08-22T03:21:45.636Z,83.35
2022-08-22T03:25:33.361Z,83.72
2022-08-22T03:29:20.843Z,84.15
2022-08-22T03:33:17.124Z,84.78
2022-08-22T03:37:05.569Z,86.69
2022-08-22T03:40:59.103Z,86.20
2022-08-22T03:45:01.087Z,85.87
2022-08-22T03:49:16.475Z,85.64
2022-08-22T03:53:30.489Z,83.97
2022-08-22T03:57:33.230Z,83.30
2022-08-22T04:01:33.175Z,82.69
2022-08-22T04:05:41.575Z,82.49
2022-08-22T04:09:50.433Z,82.61
2022-08-22T04:14:04.948Z,81.99
2022-08-22T04:18:03.868Z,82.65
2022-08-22T04:22:12.154Z,83.74
2022-08-22T04:25:58.679Z,84.52
2022-08-22T04:29:47.790Z,85.75
2022-08-22T04:33:33.372Z,87.10
2022-08-22T04:37:19.834Z,89.39
2022-08-22T04:41:08.864Z,90.94
2022-08-22T04:44:56.099Z,91.59
2022-08-22T04:48:43.032Z,92.57
2022-08-22T04:52:36.260Z,93.81
2022-08-22T04:56:25.028Z,96.07
2022-08-22T05:00:11.584Z,94.89
2022-08-22T05:03:58.455Z,91.33
2022-08-22T05:07:45.275Z,90.25
2022-08-22T05:11:29.159Z,89.24
2022-08-22T05:15:23.287Z,87.87
2022-08-22T05:19:13.200Z,85.07
2022-08-22T05:23:02.477Z,84.12
2022-08-22T05:26:51.978Z,85.80
2022-08-22T05:30:36.922Z,86.68
2022-08-22T05:34:23.033Z,87.53
2022-08-22T05:38:07.860Z,88.95
2022-08-22T05:41:51.229Z,87.62
2022-08-22T05:45:36.796Z,87.86
2022-08-22T05:49:23.078Z,87.58
2022-08-22T05:53:09.083Z,88.05
2022-08-22T05:56:54.792Z,88.63
2022-08-22T06:00:42.134Z,87.88
2022-08-22T06:04:28.519Z,86.90
2022-08-22T06:08:19.073Z,86.45
2022-08-22T06:12:05.095Z,86.30
2022-08-22T06:15:52.749Z,84.29
2022-08-22T06:19:38.371Z,84.05
2022-08-22T06:23:26.914Z,83.08
2022-08-22T06:27:11.988Z,82.58
2022-08-22T06:30:57.285Z,81.59
2022-08-22T06:34:43.009Z,81.21
2022-08-22T06:38:29.480Z,80.33
2022-08-22T06:42:16.754Z,78.43
2022-08-22T06:46:01.373Z,78.32
2022-08-22T06:49:46.469Z,78.25
2022-08-22T06:53:33.850Z,77.14
2022-08-22T06:57:27.266Z,76.48
2022-08-22T07:01:15.745Z,75.69
2022-08-22T07:04:58.717Z,75.73
2022-08-22T07:08:42.222Z,75.45
2022-08-22T07:12:29.869Z,75.08
2022-08-22T07:16:14.835Z,74.87
2022-08-22T07:20:00.943Z,73.97
2022-08-22T07:23:48.130Z,74.15
2022-08-22T07:27:45.079Z,73.22
2022-08-22T07:31:38.215Z,73.10
2022-08-22T07:35:23.389Z,72.82
2022-08-22T07:39:20.285Z,71.94
2022-08-22T07:43:10.313Z,71.97
2022-08-22T07:47:00.335Z,71.56
2022-08-22T07:50:48.429Z,70.18
2022-08-22T07:54:36.939Z,69.19
2022-08-22T07:58:21.027Z,67.57
2022-08-22T08:02:08.187Z,66.68
2022-08-22T08:05:54.007Z,66.72
2022-08-22T08:09:42.585Z,66.92
2022-08-22T08:13:28.732Z,64.98
2022-08-22T08:17:16.286Z,65.63
2022-08-22T08:21:02.071Z,64.27
2022-08-22T08:24:45.860Z,64.63
2022-08-22T08:28:34.861Z,61.08
2022-08-22T08:32:19.299Z,60.21
2022-08-22T08:36:06.072Z,59.19
2022-08-22T08:39:51.628Z,58.85
2022-08-22T08:43:41.885Z,59.49
2022-08-22T08:47:34.939Z,59.67
2022-08-22T08:51:31.336Z,58.46
2022-08-22T08:55:22.713Z,58.99
2022-08-22T08:59:13.195Z,56.62
2022-08-22T09:03:07.884Z,56.87
2022-08-22T09:07:18.753Z,56.51
2022-08-22T09:11:31.048Z,55.82
2022-08-22T09:15:22.423Z,52.94
2022-08-22T09:19:31.265Z,53.00
2022-08-22T09:23:28.462Z,53.37
2022-08-22T09:27:16.294Z,52.40
2022-08-22T09:31:16.918Z,51.33
2022-08-22T09:35:22.372Z,51.67
2022-08-22T09:39:11.556Z,48.64
2022-08-22T09:43:02.616Z,49.38
2022-08-22T09:46:57.156Z,47.64
2022-08-22T09:50:47.613Z,47.13
2022-08-22T09:54:38.620Z,47.04
2022-08-22T09:58:27.919Z,48.99
2022-08-22T10:02:24.771Z,47.06
2022-08-22T10:06:14.130Z,44.98
2022-08-22T10:10:05.516Z,50.13
2022-08-22T10:13:57.338Z,49.68
2022-08-22T10:17:51.497Z,48.27
2022-08-22T10:21:41.533Z,43.06
2022-08-22T10:25:33.814Z,43.14
2022-08-22T10:29:49.232Z,45.20
2022-08-22T10:33:36.017Z,43.44
2022-08-22T10:37:27.725Z,43.90
2022-08-22T10:41:18.107Z,44.17
2022-08-22T10:45:23.644Z,46.17
2022-08-22T10:49:09.628Z,45.14
2022-08-22T10:53:19.117Z,43.80
2022-08-22T10:57:52.695Z,45.34
2022-08-22T11:01:42.096Z,45.13
2022-08-22T11:05:35.756Z,43.96
2022-08-22T11:09:28.037Z,44.63
2022-08-22T11:13:16.470Z,44.62
2022-08-22T11:17:23.636Z,44.53
2022-08-22T11:21:22.309Z,42.14
2022-08-22T11:25:28.671Z,42.33
2022-08-22T11:29:27.602Z,42.40
2022-08-22T11:33:18.004Z,42.48
2022-08-22T11:37:11.047Z,42.69
2022-08-22T11:41:00.763Z,43.45
2022-08-22T11:44:50.078Z,43.85
2022-08-22T11:48:40.208Z,42.21
2022-08-22T11:52:52.010Z,44.08
2022-08-22T11:56:40.240Z,42.40
2022-08-22T12:00:33.368Z,43.92
2022-08-22T12:04:19.350Z,42.50
2022-08-22T12:08:08.736Z,41.80
2022-08-22T12:12:10.267Z,43.47
2022-08-22T12:16:02.126Z,39.60
2022-08-22T12:20:16.631Z,39.01
2022-08-22T12:24:20.961Z,38.35
2022-08-22T12:28:17.895Z,39.09
2022-08-22T12:32:37.195Z,40.22
2022-08-22T12:36:43.797Z,40.91
2022-08-22T12:40:43.653Z,40.18
2022-08-22T12:44:35.281Z,38.39
2022-08-22T12:48:33.496Z,40.37
2022-08-22T12:52:27.360Z,39.06
2022-08-22T12:56:17.745Z,39.17
2022-08-22T13:00:22.840Z,39.30
2022-08-22T13:04:12.491Z,34.93
2022-08-22T13:08:17.631Z,37.04
2022-08-22T13:12:04.987Z,37.56
2022-08-22T13:15:56.248Z,37.29
2022-08-22T13:20:04.647Z,35.00
2022-08-22T13:23:54.990Z,35.77
2022-08-22T13:28:03.427Z,35.64
2022-08-22T13:31:53.351Z,35.02
2022-08-22T13:35:44.557Z,35.96
2022-08-22T13:39:33.474Z,36.84
2022-08-22T13:43:21.589Z,36.77
2022-08-22T13:47:14.205Z,36.66
2022-08-22T13:51:08.134Z,34.96
2022-08-22T13:54:55.136Z,36.82
2022-08-22T13:58:40.513Z,36.19
2022-08-22T14:02:43.209Z,36.06
2022-08-22T14:06:38.023Z,35.91
2022-08-22T14:10:26.598Z,36.20
2022-08-22T14:14:10.859Z,35.16
2022-08-22T14:18:03.353Z,34.03
2022-08-22T14:21:47.733Z,33.89
2022-08-22T14:25:35.546Z,33.57
2022-08-22T14:29:19.503Z,32.46
2022-08-22T14:33:12.777Z,32.76
2022-08-22T14:37:00.312Z,32.87
2022-08-22T14:40:43.847Z,31.60
2022-08-22T14:44:29.401Z,29.16
2022-08-22T14:48:31.245Z,29.37
2022-08-22T14:52:29.411Z,28.49
2022-08-22T14:56:15.055Z,28.19
2022-08-22T15:00:04.367Z,26.59
2022-08-22T15:03:55.368Z,26.39
2022-08-22T15:07:38.295Z,27.80
2022-08-22T15:11:23.173Z,26.39
2022-08-22T15:15:11.346Z,27.41
2022-08-22T15:18:56.979Z,26.93
2022-08-22T15:22:41.312Z,26.33
2022-08-22T15:26:31.106Z,25.96
2022-08-22T15:30:18.622Z,25.42
2022-08-22T15:34:11.564Z,24.85
2022-08-22T15:38:26.344Z,25.30
2022-08-22T15:42:10.792Z,28.91
2022-08-22T15:46:18.133Z,25.45
2022-08-22T15:50:05.678Z,25.75
2022-08-22T15:54:01.499Z,24.53
2022-08-22T15:57:51.488Z,25.37
2022-08-22T16:01:43.040Z,25.90
2022-08-22T16:05:55.151Z,26.71
2022-08-22T16:09:42.715Z,26.34
2022-08-22T16:13:43.543Z,25.96
2022-08-22T16:17:47.101Z,27.25
2022-08-22T16:22:11.253Z,29.28
2022-08-22T16:26:15.195Z,30.22
2022-08-22T16:30:13.713Z,30.92
2022-08-22T16:33:58.544Z,30.75
2022-08-22T16:37:49.357Z,31.04
2022-08-22T16:41:36.282Z,30.95
2022-08-22T16:45:22.893Z,30.55
2022-08-22T16:49:05.738Z,30.82
2022-08-22T16:52:59.966Z,31.07
2022-08-22T16:57:00.768Z,31.00
2022-08-22T17:00:50.943Z,31.38
2022-08-22T17:04:38.387Z,31.23
2022-08-22T17:08:35.589Z,31.81
2022-08-22T17:12:29.475Z,32.51
2022-08-22T17:16:22.681Z,32.88
2022-08-22T17:20:19.251Z,33.64
2022-08-22T17:24:11.679Z,34.53
2022-08-22T17:28:20.994Z,35.43
2022-08-22T17:32:11.835Z,36.60
2022-08-22T17:36:04.760Z,37.24
2022-08-22T17:40:13.267Z,37.83
2022-08-22T17:44:02.518Z,37.66
2022-08-22T17:47:48.349Z,38.63
2022-08-22T17:51:35.118Z,39.19
2022-08-22T17:55:21.900Z,40.20
2022-08-22T17:59:07.900Z,39.95
2022-08-22T18:02:52.996Z,40.70
2022-08-22T18:06:40.799Z,40.88
2022-08-22T18:10:38.231Z,41.62
2022-08-22T18:14:26.785Z,42.24
2022-08-22T18:18:14.493Z,42.82
2022-08-22T18:21:59.629Z,43.23
2022-08-22T18:25:47.157Z,43.53
2022-08-22T18:29:44.326Z,44.18
2022-08-22T18:33:32.891Z,44.53
2022-08-22T18:37:39.877Z,45.24
2022-08-22T18:41:29.380Z,45.43
2022-08-22T18:45:15.904Z,45.87
2022-08-22T18:49:15.138Z,45.99
2022-08-22T18:52:59.432Z,46.12
2022-08-22T18:56:51.274Z,47.11
2022-08-22T19:00:49.927Z,47.52
2022-08-22T19:05:00.582Z,47.81
2022-08-22T19:09:05.217Z,47.76
2022-08-22T19:13:05.412Z,48.33
2022-08-22T19:17:01.831Z,48.78
2022-08-22T19:21:04.305Z,48.33
2022-08-22T19:25:09.184Z,47.71
2022-08-22T19:28:56.423Z,47.64
2022-08-22T19:33:06.734Z,47.82
2022-08-22T19:37:32.049Z,48.02
2022-08-22T19:41:39.409Z,47.54
2022-08-22T19:45:28.849Z,48.10
2022-08-22T19:49:27.099Z,48.47
2022-08-22T19:53:26.566Z,48.04
2022-08-22T19:57:13.686Z,48.61
2022-08-22T20:01:00.735Z,48.67
2022-08-22T20:05:14.442Z,48.67
2022-08-22T20:09:12.288Z,48.69
2022-08-22T20:13:04.377Z,48.77
2022-08-22T20:17:08.723Z,49.17
2022-08-22T20:21:00.076Z,50.51
2022-08-22T20:24:46.568Z,51.36
2022-08-22T20:28:36.949Z,50.94
2022-08-22T20:32:23.250Z,50.80
2022-08-22T20:36:16.634Z,49.20
2022-08-22T20:40:55.919Z,48.25
2022-08-22T20:44:33.358Z,49.06
2022-08-22T20:48:17.583Z,49.26
2022-08-22T20:52:02.049Z,48.95
2022-08-22T20:55:54.729Z,49.70
2022-08-22T20:59:41.532Z,50.50
2022-08-22T21:03:34.547Z,51.04
2022-08-22T21:07:27.159Z,51.62
2022-08-22T21:11:28.171Z,52.38
2022-08-22T21:15:11.261Z,52.63
2022-08-22T21:18:55.979Z,53.13
2022-08-22T21:22:38.968Z,53.82
2022-08-22T21:26:24.096Z,54.65
2022-08-22T21:30:09.576Z,54.44
2022-08-22T21:33:55.512Z,54.58
2022-08-22T21:37:40.759Z,55.66
2022-08-22T21:41:33.200Z,56.10
2022-08-22T21:45:28.531Z,55.98
2022-08-22T21:49:22.432Z,56.24
2022-08-22T21:53:11.296Z,56.63
2022-08-22T21:56:56.589Z,56.14
2022-08-22T22:00:49.742Z,56.71
2022-08-22T22:04:34.539Z,57.21
2022-08-22T22:08:18.617Z,57.20
2022-08-22T22:12:01.427Z,57.25
2022-08-22T22:15:46.591Z,58.36
2022-08-22T22:19:29.372Z,58.18
2022-08-22T22:23:13.894Z,58.21
2022-08-22T22:26:56.892Z,58.81
2022-08-22T22:30:39.730Z,58.56
2022-08-22T22:34:23.105Z,59.09
2022-08-22T22:38:06.274Z,59.66
2022-08-22T22:41:50.488Z,59.58
2022-08-22T22:45:36.130Z,60.64
2022-08-22T22:49:19.448Z,60.80
2022-08-22T22:53:02.179Z,60.99
2022-08-22T22:56:47.954Z,60.52
2022-08-22T23:00:34.434Z,60.71
2022-08-22T23:04:17.760Z,60.24
2022-08-22T23:08:01.392Z,60.56
2022-08-22T23:11:44.466Z,60.21
2022-08-22T23:15:27.612Z,60.59
2022-08-22T23:19:12.731Z,60.97
2022-08-22T23:22:55.507Z,60.30
2022-08-22T23:26:39.150Z,60.74
2022-08-22T23:30:22.356Z,61.30
2022-08-22T23:34:07.659Z,60.95
2022-08-22T23:37:52.716Z,61.11
2022-08-22T23:41:36.535Z,60.40
2022-08-22T23:45:21.470Z,60.37
2022-08-22T23:49:05.226Z,61.07
2022-08-22T23:52:48.222Z,62.56
2022-08-22T23:56:35.919Z,62.43
